sensor_id;sensor_type;location;lat;lon;timestamp;pressure;altitude;pressure_sealevel;temperature;humidity
39197;BME280;42889;51.112;13.772;2022-10-31T09:08:50;99710.44;;;19.51;59.50
39197;BME280;42889;51.112;13.772;2022-10-31T09:11:17;99717.22;;;20.16;60.67
39197;BME280;42889;51.112;13.772;2022-10-31T09:14:22;99716.22;;;20.97;54.37
39197;BME280;42889;51.112;13.772;2022-10-31T09:17:16;99711.75;;;21.29;50.98
39197;BME280;42889;51.112;13.772;2022-10-31T09:20:03;99716.47;;;21.73;49.32
39197;BME280;42889;51.112;13.772;2022-10-31T09:22:33;99717.00;;;21.37;50.15
39197;BME280;42889;51.112;13.772;2022-10-31T09:24:59;99731.56;;;20.38;53.47
39197;BME280;42889;51.112;13.772;2022-10-31T09:27:26;99725.53;;;18.84;57.80
39197;BME280;42889;51.112;13.772;2022-10-31T09:29:55;99728.84;;;17.94;62.21
39197;BME280;42889;51.112;13.772;2022-10-31T09:32:22;99733.88;;;17.46;64.97
39197;BME280;42889;51.112;13.772;2022-10-31T09:34:49;99724.50;;;17.19;66.03
39197;BME280;42889;51.112;13.772;2022-10-31T09:37:18;99734.97;;;17.07;65.62
39197;BME280;42889;51.112;13.772;2022-10-31T09:39:45;99732.34;;;16.84;67.60
39197;BME280;42889;51.112;13.772;2022-10-31T09:45:31;99732.75;;;17.41;66.00
39197;BME280;42889;51.112;13.772;2022-10-31T09:51:24;99727.66;;;17.67;63.63
39197;BME280;42889;51.112;13.772;2022-10-31T09:54:06;99723.66;;;17.48;63.84
39197;BME280;42889;51.112;13.772;2022-10-31T09:56:36;99731.63;;;17.05;68.78
39197;BME280;42889;51.112;13.772;2022-10-31T09:59:10;99729.47;;;17.45;65.33
39197;BME280;42889;51.112;13.772;2022-10-31T10:04:32;99720.81;;;17.56;65.18
39197;BME280;42889;51.112;13.772;2022-10-31T10:10:27;99722.78;;;17.62;64.93
39197;BME280;42889;51.112;13.772;2022-10-31T10:21:42;99724.03;;;17.75;65.11
39197;BME280;42889;51.112;13.772;2022-10-31T10:24:30;99720.13;;;17.84;65.42
39197;BME280;42889;51.112;13.772;2022-10-31T10:27:08;99712.91;;;17.91;64.66
39197;BME280;42889;51.112;13.772;2022-10-31T10:29:42;99706.44;;;18.13;65.72
39197;BME280;42889;51.112;13.772;2022-10-31T10:32:28;99714.16;;;18.10;68.06
39197;BME280;42889;51.112;13.772;2022-10-31T10:35:19;99702.78;;;18.28;66.32
39197;BME280;42889;51.112;13.772;2022-10-31T10:37:50;99702.19;;;18.75;62.62
39197;BME280;42889;51.112;13.772;2022-10-31T10:40:23;99702.47;;;19.15;61.40
39197;BME280;42889;51.112;13.772;2022-10-31T10:51:29;99696.47;;;20.88;56.66
39197;BME280;42889;51.112;13.772;2022-10-31T10:54:39;99689.34;;;21.65;52.65
39197;BME280;42889;51.112;13.772;2022-10-31T11:03:03;99682.25;;;24.12;49.05
39197;BME280;42889;51.112;13.772;2022-10-31T11:05:47;99682.88;;;24.26;48.28
39197;BME280;42889;51.112;13.772;2022-10-31T11:08:26;99680.25;;;24.96;46.10
39197;BME280;42889;51.112;13.772;2022-10-31T11:11:03;99666.72;;;26.11;42.71
39197;BME280;42889;51.112;13.772;2022-10-31T11:13:31;99666.09;;;25.92;42.06
39197;BME280;42889;51.112;13.772;2022-10-31T11:16:03;99666.66;;;25.54;44.30
39197;BME280;42889;51.112;13.772;2022-10-31T11:18:39;99664.00;;;26.27;42.55
39197;BME280;42889;51.112;13.772;2022-10-31T11:21:21;99664.22;;;25.81;41.66
39197;BME280;42889;51.112;13.772;2022-10-31T11:23:48;99663.16;;;24.94;44.87
39197;BME280;42889;51.112;13.772;2022-10-31T11:26:20;99650.78;;;25.44;43.20
39197;BME280;42889;51.112;13.772;2022-10-31T11:28:57;99650.66;;;25.39;44.81
39197;BME280;42889;51.112;13.772;2022-10-31T11:31:25;99666.47;;;24.96;45.53
39197;BME280;42889;51.112;13.772;2022-10-31T11:33:58;99657.63;;;24.83;42.97
39197;BME280;42889;51.112;13.772;2022-10-31T11:36:31;99649.59;;;24.93;43.38
39197;BME280;42889;51.112;13.772;2022-10-31T11:39:00;99647.94;;;24.80;43.53
39197;BME280;42889;51.112;13.772;2022-10-31T11:41:33;99646.78;;;24.34;45.36
39197;BME280;42889;51.112;13.772;2022-10-31T11:44:15;99634.53;;;24.84;44.39
39197;BME280;42889;51.112;13.772;2022-10-31T11:46:53;99644.47;;;24.73;46.65
39197;BME280;42889;51.112;13.772;2022-10-31T11:49:40;99643.38;;;24.51;47.51
39197;BME280;42889;51.112;13.772;2022-10-31T11:52:12;99641.47;;;23.79;46.73
39197;BME280;42889;51.112;13.772;2022-10-31T11:54:44;99641.38;;;22.76;48.40
39197;BME280;42889;51.112;13.772;2022-10-31T11:57:32;99632.22;;;21.69;53.70
39197;BME280;42889;51.112;13.772;2022-10-31T12:00:01;99623.09;;;21.81;53.17
39197;BME280;42889;51.112;13.772;2022-10-31T12:02:37;99629.63;;;21.29;54.01
39197;BME280;42889;51.112;13.772;2022-10-31T12:05:17;99615.28;;;21.40;53.66
39197;BME280;42889;51.112;13.772;2022-10-31T12:07:47;99614.59;;;20.87;56.20
39197;BME280;42889;51.112;13.772;2022-10-31T12:10:15;99613.22;;;21.22;56.56
39197;BME280;42889;51.112;13.772;2022-10-31T12:13:34;99630.19;;;20.60;57.56
39197;BME280;42889;51.112;13.772;2022-10-31T12:16:00;99601.78;;;20.81;57.58
39197;BME280;42889;51.112;13.772;2022-10-31T12:18:38;99608.78;;;20.57;59.37
39197;BME280;42889;51.112;13.772;2022-10-31T12:21:16;99608.72;;;20.76;57.18
39197;BME280;42889;51.112;13.772;2022-10-31T12:23:50;99606.63;;;20.25;59.53
39197;BME280;42889;51.112;13.772;2022-10-31T12:40:34;99587.72;;;19.91;60.76
39197;BME280;42889;51.112;13.772;2022-10-31T12:45:55;99592.31;;;19.77;60.87
39197;BME280;42889;51.112;13.772;2022-10-31T12:48:52;99585.81;;;20.05;58.93
39197;BME280;42889;51.112;13.772;2022-10-31T12:54:51;99578.88;;;19.76;59.93
39197;BME280;42889;51.112;13.772;2022-10-31T12:57:37;99576.88;;;19.49;63.42
39197;BME280;42889;51.112;13.772;2022-10-31T13:00:13;99578.75;;;19.36;64.39
39197;BME280;42889;51.112;13.772;2022-10-31T13:03:25;99571.25;;;19.03;67.54
39197;BME280;42889;51.112;13.772;2022-10-31T13:05:58;99568.25;;;19.39;63.39
39197;BME280;42889;51.112;13.772;2022-10-31T13:15:21;99567.94;;;19.14;63.92
39197;BME280;42889;51.112;13.772;2022-10-31T13:17:53;99557.59;;;18.97;66.31
39197;BME280;42889;51.112;13.772;2022-10-31T13:20:29;99555.63;;;18.84;69.34
39197;BME280;42889;51.112;13.772;2022-10-31T13:25:54;99549.97;;;18.51;71.49
39197;BME280;42889;51.112;13.772;2022-10-31T13:28:49;99553.06;;;18.41;68.57
39197;BME280;42889;51.112;13.772;2022-10-31T13:31:18;99550.81;;;18.51;65.43
39197;BME280;42889;51.112;13.772;2022-10-31T13:33:48;99547.47;;;18.56;68.72
39197;BME280;42889;51.112;13.772;2022-10-31T13:36:21;99541.84;;;18.29;70.01
39197;BME280;42889;51.112;13.772;2022-10-31T13:38:59;99542.34;;;18.39;69.19
39197;BME280;42889;51.112;13.772;2022-10-31T13:41:50;99550.91;;;18.30;69.36
39197;BME280;42889;51.112;13.772;2022-10-31T13:44:28;99547.13;;;18.31;68.41
39197;BME280;42889;51.112;13.772;2022-10-31T13:47:03;99549.50;;;18.40;69.08
39197;BME280;42889;51.112;13.772;2022-10-31T13:52:14;99545.50;;;18.08;68.93
39197;BME280;42889;51.112;13.772;2022-10-31T13:54:43;99542.78;;;17.87;75.41
39197;BME280;42889;51.112;13.772;2022-10-31T13:59:48;99539.75;;;17.97;72.39
39197;BME280;42889;51.112;13.772;2022-10-31T14:02:17;99536.66;;;17.63;75.69
39197;BME280;42889;51.112;13.772;2022-10-31T14:04:47;99534.09;;;17.19;78.81
39197;BME280;42889;51.112;13.772;2022-10-31T14:07:17;99532.25;;;17.20;75.97
39197;BME280;42889;51.112;13.772;2022-10-31T14:12:27;99527.94;;;17.25;75.95
39197;BME280;42889;51.112;13.772;2022-10-31T14:14:58;99520.44;;;17.12;77.94
39197;BME280;42889;51.112;13.772;2022-10-31T14:17:28;99513.25;;;17.05;78.79
39197;BME280;42889;51.112;13.772;2022-10-31T14:20:02;99515.53;;;16.86;79.77
39197;BME280;42889;51.112;13.772;2022-10-31T14:22:32;99510.84;;;16.80;80.21
39197;BME280;42889;51.112;13.772;2022-10-31T14:27:54;99507.03;;;16.60;82.62
39197;BME280;42889;51.112;13.772;2022-10-31T14:30:25;99508.25;;;16.43;81.71
39197;BME280;42889;51.112;13.772;2022-10-31T14:32:55;99512.06;;;16.33;82.91
39197;BME280;42889;51.112;13.772;2022-10-31T14:35:27;99503.56;;;16.22;82.79
39197;BME280;42889;51.112;13.772;2022-10-31T14:38:06;99506.81;;;16.17;83.68
39197;BME280;42889;51.112;13.772;2022-10-31T14:43:25;99497.06;;;15.93;85.91
39197;BME280;42889;51.112;13.772;2022-10-31T14:46:12;99487.13;;;15.86;85.34
39197;BME280;42889;51.112;13.772;2022-10-31T14:51:41;99496.25;;;15.47;87.25
39197;BME280;42889;51.112;13.772;2022-10-31T14:54:34;99496.47;;;15.37;87.90
39197;BME280;42889;51.112;13.772;2022-10-31T14:57:13;99489.78;;;15.25;88.72
39197;BME280;42889;51.112;13.772;2022-10-31T14:59:45;99493.03;;;15.20;89.19
39197;BME280;42889;51.112;13.772;2022-10-31T15:02:24;99478.84;;;14.87;91.05
39197;BME280;42889;51.112;13.772;2022-10-31T15:04:54;99481.63;;;14.79;92.11
39197;BME280;42889;51.112;13.772;2022-10-31T15:07:23;99483.03;;;14.67;93.54
39197;BME280;42889;51.112;13.772;2022-10-31T15:10:00;99483.38;;;14.64;94.61
39197;BME280;42889;51.112;13.772;2022-10-31T15:12:34;99480.75;;;14.47;95.17
39197;BME280;42889;51.112;13.772;2022-10-31T15:15:13;99471.81;;;14.22;97.24
39197;BME280;42889;51.112;13.772;2022-10-31T15:17:44;99474.94;;;14.03;98.23
39197;BME280;42889;51.112;13.772;2022-10-31T15:20:17;99463.78;;;13.98;99.29
39197;BME280;42889;51.112;13.772;2022-10-31T15:22:45;99458.06;;;13.85;100.00
39197;BME280;42889;51.112;13.772;2022-10-31T15:25:18;99456.00;;;13.95;100.00
39197;BME280;42889;51.112;13.772;2022-10-31T15:27:46;99470.53;;;14.02;100.00
39197;BME280;42889;51.112;13.772;2022-10-31T15:30:31;99457.75;;;13.80;100.00
39197;BME280;42889;51.112;13.772;2022-10-31T15:32:57;99459.69;;;14.10;100.00
39197;BME280;42889;51.112;13.772;2022-10-31T15:35:29;99462.78;;;13.91;100.00
39197;BME280;42889;51.112;13.772;2022-10-31T15:37:57;99456.75;;;13.64;100.00
39197;BME280;42889;51.112;13.772;2022-10-31T15:40:26;99452.50;;;13.70;100.00
39197;BME280;42889;51.112;13.772;2022-10-31T15:43:00;99453.38;;;13.54;100.00
39197;BME280;42889;51.112;13.772;2022-10-31T15:45:28;99452.72;;;13.52;100.00
39197;BME280;42889;51.112;13.772;2022-10-31T15:47:59;99449.81;;;13.37;100.00
39197;BME280;42889;51.112;13.772;2022-10-31T15:50:37;99453.34;;;13.13;100.00
39197;BME280;42889;51.112;13.772;2022-10-31T15:53:16;99450.44;;;12.99;100.00
39197;BME280;42889;51.112;13.772;2022-10-31T15:55:56;99443.34;;;13.06;100.00
39197;BME280;42889;51.112;13.772;2022-10-31T15:58:24;99442.75;;;12.61;100.00
39197;BME280;42889;51.112;13.772;2022-10-31T16:01:05;99434.44;;;12.38;100.00
39197;BME280;42889;51.112;13.772;2022-10-31T16:03:33;99428.31;;;12.28;100.00
39197;BME280;42889;51.112;13.772;2022-10-31T16:06:02;99426.22;;;12.14;100.00
39197;BME280;42889;51.112;13.772;2022-10-31T16:10:58;99419.97;;;12.05;100.00
39197;BME280;42889;51.112;13.772;2022-10-31T16:13:29;99414.03;;;12.02;100.00
39197;BME280;42889;51.112;13.772;2022-10-31T16:16:00;99411.13;;;11.95;100.00
39197;BME280;42889;51.112;13.772;2022-10-31T16:18:48;99407.59;;;11.95;100.00
39197;BME280;42889;51.112;13.772;2022-10-31T16:21:22;99409.47;;;11.94;100.00
39197;BME280;42889;51.112;13.772;2022-10-31T16:23:54;99411.97;;;11.96;100.00
39197;BME280;42889;51.112;13.772;2022-10-31T16:26:24;99408.13;;;11.98;100.00
39197;BME280;42889;51.112;13.772;2022-10-31T16:28:56;99413.63;;;11.89;100.00
39197;BME280;42889;51.112;13.772;2022-10-31T16:31:37;99412.78;;;11.88;100.00
39197;BME280;42889;51.112;13.772;2022-10-31T16:34:22;99408.66;;;11.76;100.00
39197;BME280;42889;51.112;13.772;2022-10-31T16:36:52;99399.13;;;11.64;100.00
39197;BME280;42889;51.112;13.772;2022-10-31T16:39:19;99408.69;;;11.58;100.00
39197;BME280;42889;51.112;13.772;2022-10-31T16:41:50;99403.69;;;11.63;100.00
39197;BME280;42889;51.112;13.772;2022-10-31T16:44:23;99407.94;;;11.66;100.00
39197;BME280;42889;51.112;13.772;2022-10-31T16:49:32;99402.81;;;11.54;100.00
39197;BME280;42889;51.112;13.772;2022-10-31T16:51:58;99399.94;;;11.56;100.00
39197;BME280;42889;51.112;13.772;2022-10-31T16:54:25;99394.72;;;11.54;100.00
39197;BME280;42889;51.112;13.772;2022-10-31T16:56:51;99390.94;;;11.47;100.00
39197;BME280;42889;51.112;13.772;2022-10-31T16:59:18;99385.41;;;11.49;100.00
39197;BME280;42889;51.112;13.772;2022-10-31T17:01:47;99391.66;;;11.49;100.00
39197;BME280;42889;51.112;13.772;2022-10-31T17:04:15;99391.41;;;11.43;100.00
39197;BME280;42889;51.112;13.772;2022-10-31T17:06:42;99386.56;;;11.46;100.00
39197;BME280;42889;51.112;13.772;2022-10-31T17:09:08;99389.25;;;11.46;100.00
39197;BME280;42889;51.112;13.772;2022-10-31T17:11:35;99385.88;;;11.44;100.00
39197;BME280;42889;51.112;13.772;2022-10-31T17:14:04;99390.44;;;11.44;100.00
39197;BME280;42889;51.112;13.772;2022-10-31T17:16:31;99382.28;;;11.35;100.00
39197;BME280;42889;51.112;13.772;2022-10-31T17:18:57;99391.06;;;11.38;100.00
39197;BME280;42889;51.112;13.772;2022-10-31T17:21:24;99387.28;;;11.30;100.00
39197;BME280;42889;51.112;13.772;2022-10-31T17:23:53;99382.06;;;11.29;100.00
39197;BME280;42889;51.112;13.772;2022-10-31T17:26:20;99382.31;;;11.18;100.00
39197;BME280;42889;51.112;13.772;2022-10-31T17:28:46;99380.78;;;11.15;100.00
39197;BME280;42889;51.112;13.772;2022-10-31T17:31:21;99374.00;;;11.29;100.00
39197;BME280;42889;51.112;13.772;2022-10-31T17:33:49;99380.00;;;11.23;100.00
39197;BME280;42889;51.112;13.772;2022-10-31T17:36:16;99374.25;;;11.18;100.00
39197;BME280;42889;51.112;13.772;2022-10-31T17:38:42;99369.41;;;11.03;100.00
39197;BME280;42889;51.112;13.772;2022-10-31T17:41:09;99362.56;;;11.09;100.00
39197;BME280;42889;51.112;13.772;2022-10-31T17:43:38;99371.34;;;10.93;100.00
39197;BME280;42889;51.112;13.772;2022-10-31T17:46:06;99363.03;;;10.87;100.00
39197;BME280;42889;51.112;13.772;2022-10-31T17:48:34;99362.91;;;10.88;100.00
39197;BME280;42889;51.112;13.772;2022-10-31T17:51:02;99360.50;;;10.85;100.00
39197;BME280;42889;51.112;13.772;2022-10-31T17:53:32;99361.44;;;10.94;100.00
39197;BME280;42889;51.112;13.772;2022-10-31T17:56:03;99362.38;;;10.85;100.00
39197;BME280;42889;51.112;13.772;2022-10-31T17:58:30;99354.75;;;10.80;100.00
39197;BME280;42889;51.112;13.772;2022-10-31T18:00:57;99349.69;;;10.77;100.00
39197;BME280;42889;51.112;13.772;2022-10-31T18:03:25;99346.50;;;10.81;100.00
39197;BME280;42889;51.112;13.772;2022-10-31T18:05:56;99344.28;;;10.95;100.00
39197;BME280;42889;51.112;13.772;2022-10-31T18:08:26;99354.09;;;11.04;100.00
39197;BME280;42889;51.112;13.772;2022-10-31T18:10:54;99349.88;;;11.01;100.00
39197;BME280;42889;51.112;13.772;2022-10-31T18:13:25;99349.19;;;10.99;100.00
39197;BME280;42889;51.112;13.772;2022-10-31T18:15:53;99350.56;;;11.03;100.00
39197;BME280;42889;51.112;13.772;2022-10-31T18:18:25;99347.41;;;11.08;100.00
39197;BME280;42889;51.112;13.772;2022-10-31T18:20:57;99349.06;;;11.27;100.00
39197;BME280;42889;51.112;13.772;2022-10-31T18:23:27;99359.84;;;11.27;100.00
39197;BME280;42889;51.112;13.772;2022-10-31T18:25:57;99364.22;;;11.28;100.00
39197;BME280;42889;51.112;13.772;2022-10-31T18:28:29;99358.34;;;11.32;100.00
39197;BME280;42889;51.112;13.772;2022-10-31T18:30:59;99362.41;;;11.37;100.00
39197;BME280;42889;51.112;13.772;2022-10-31T18:33:31;99354.94;;;11.48;100.00
39197;BME280;42889;51.112;13.772;2022-10-31T18:36:13;99352.84;;;11.42;100.00
39197;BME280;42889;51.112;13.772;2022-10-31T18:38:43;99345.97;;;11.48;100.00
39197;BME280;42889;51.112;13.772;2022-10-31T18:41:14;99344.66;;;11.52;100.00
39197;BME280;42889;51.112;13.772;2022-10-31T18:43:42;99335.25;;;11.56;100.00
39197;BME280;42889;51.112;13.772;2022-10-31T18:46:16;99332.22;;;11.59;100.00
39197;BME280;42889;51.112;13.772;2022-10-31T18:48:52;99330.72;;;11.65;100.00
39197;BME280;42889;51.112;13.772;2022-10-31T18:51:32;99339.31;;;11.60;100.00
39197;BME280;42889;51.112;13.772;2022-10-31T18:54:08;99341.19;;;11.68;100.00
39197;BME280;42889;51.112;13.772;2022-10-31T18:56:38;99335.63;;;11.61;100.00
39197;BME280;42889;51.112;13.772;2022-10-31T18:59:05;99340.31;;;11.59;100.00
39197;BME280;42889;51.112;13.772;2022-10-31T19:01:35;99339.38;;;11.42;100.00
39197;BME280;42889;51.112;13.772;2022-10-31T19:04:02;99338.59;;;11.50;100.00
39197;BME280;42889;51.112;13.772;2022-10-31T19:06:29;99333.22;;;11.58;100.00
39197;BME280;42889;51.112;13.772;2022-10-31T19:09:05;99331.19;;;11.52;100.00
39197;BME280;42889;51.112;13.772;2022-10-31T19:11:37;99323.44;;;11.49;100.00
39197;BME280;42889;51.112;13.772;2022-10-31T19:14:04;99321.88;;;11.46;100.00
39197;BME280;42889;51.112;13.772;2022-10-31T19:16:34;99320.19;;;11.45;100.00
39197;BME280;42889;51.112;13.772;2022-10-31T19:19:00;99322.91;;;11.53;100.00
39197;BME280;42889;51.112;13.772;2022-10-31T19:21:27;99319.03;;;11.48;100.00
39197;BME280;42889;51.112;13.772;2022-10-31T19:23:57;99316.97;;;11.42;100.00
39197;BME280;42889;51.112;13.772;2022-10-31T19:26:25;99315.13;;;11.42;100.00
39197;BME280;42889;51.112;13.772;2022-10-31T19:28:52;99315.09;;;11.34;100.00
39197;BME280;42889;51.112;13.772;2022-10-31T19:31:24;99306.63;;;11.29;100.00
39197;BME280;42889;51.112;13.772;2022-10-31T19:33:53;99322.69;;;11.39;100.00
39197;BME280;42889;51.112;13.772;2022-10-31T19:36:29;99314.56;;;11.30;100.00
39197;BME280;42889;51.112;13.772;2022-10-31T19:38:58;99305.84;;;11.11;100.00
39197;BME280;42889;51.112;13.772;2022-10-31T19:41:33;99304.25;;;11.00;100.00
39197;BME280;42889;51.112;13.772;2022-10-31T19:47:18;99296.97;;;10.92;100.00
39197;BME280;42889;51.112;13.772;2022-10-31T19:50:07;99298.44;;;10.87;100.00
39197;BME280;42889;51.112;13.772;2022-10-31T19:52:56;99295.66;;;10.96;100.00
39197;BME280;42889;51.112;13.772;2022-10-31T19:55:47;99293.91;;;11.13;100.00
39197;BME280;42889;51.112;13.772;2022-10-31T19:58:22;99297.59;;;11.12;100.00
39197;BME280;42889;51.112;13.772;2022-10-31T20:00:52;99293.59;;;11.16;100.00
39197;BME280;42889;51.112;13.772;2022-10-31T20:03:25;99287.88;;;10.93;100.00
39197;BME280;42889;51.112;13.772;2022-10-31T20:05:52;99285.81;;;10.87;100.00
39197;BME280;42889;51.112;13.772;2022-10-31T20:08:26;99284.38;;;10.75;100.00
39197;BME280;42889;51.112;13.772;2022-10-31T20:10:59;99273.31;;;10.78;100.00
39197;BME280;42889;51.112;13.772;2022-10-31T20:13:32;99263.91;;;10.82;100.00
39197;BME280;42889;51.112;13.772;2022-10-31T20:16:05;99252.19;;;10.91;100.00
39197;BME280;42889;51.112;13.772;2022-10-31T20:18:33;99249.06;;;11.04;100.00
39197;BME280;42889;51.112;13.772;2022-10-31T20:23:36;99256.88;;;11.15;100.00
39197;BME280;42889;51.112;13.772;2022-10-31T20:26:04;99258.13;;;11.29;100.00
39197;BME280;42889;51.112;13.772;2022-10-31T20:28:36;99271.69;;;11.45;100.00
39197;BME280;42889;51.112;13.772;2022-10-31T20:31:14;99279.59;;;11.47;100.00
39197;BME280;42889;51.112;13.772;2022-10-31T20:33:52;99277.66;;;11.31;100.00
39197;BME280;42889;51.112;13.772;2022-10-31T20:36:22;99268.00;;;11.20;100.00
39197;BME280;42889;51.112;13.772;2022-10-31T20:39:00;99258.25;;;11.19;100.00
39197;BME280;42889;51.112;13.772;2022-10-31T20:41:27;99264.34;;;11.21;100.00
39197;BME280;42889;51.112;13.772;2022-10-31T20:43:54;99259.47;;;11.25;100.00
39197;BME280;42889;51.112;13.772;2022-10-31T20:46:23;99243.84;;;11.37;100.00
39197;BME280;42889;51.112;13.772;2022-10-31T20:48:53;99249.97;;;11.47;100.00
39197;BME280;42889;51.112;13.772;2022-10-31T20:51:47;99249.47;;;11.43;100.00
39197;BME280;42889;51.112;13.772;2022-10-31T20:54:16;99249.28;;;11.45;100.00
39197;BME280;42889;51.112;13.772;2022-10-31T20:56:45;99244.09;;;11.51;100.00
39197;BME280;42889;51.112;13.772;2022-10-31T20:59:12;99238.59;;;11.61;100.00
39197;BME280;42889;51.112;13.772;2022-10-31T21:01:40;99252.22;;;11.59;100.00
39197;BME280;42889;51.112;13.772;2022-10-31T21:04:07;99259.81;;;11.64;100.00
39197;BME280;42889;51.112;13.772;2022-10-31T21:06:37;99251.34;;;11.59;100.00
39197;BME280;42889;51.112;13.772;2022-10-31T21:09:05;99247.72;;;11.34;100.00
39197;BME280;42889;51.112;13.772;2022-10-31T21:11:32;99234.25;;;11.34;100.00
39197;BME280;42889;51.112;13.772;2022-10-31T21:13:59;99234.44;;;11.32;100.00
39197;BME280;42889;51.112;13.772;2022-10-31T21:16:28;99223.66;;;11.32;100.00
39197;BME280;42889;51.112;13.772;2022-10-31T21:18:58;99224.81;;;11.30;100.00
39197;BME280;42889;51.112;13.772;2022-10-31T21:21:28;99230.59;;;11.43;100.00
39197;BME280;42889;51.112;13.772;2022-10-31T21:24:02;99235.84;;;11.19;100.00
39197;BME280;42889;51.112;13.772;2022-10-31T21:26:32;99241.97;;;11.29;100.00
39197;BME280;42889;51.112;13.772;2022-10-31T21:29:00;99236.47;;;11.04;100.00
39197;BME280;42889;51.112;13.772;2022-10-31T21:31:28;99226.00;;;11.01;100.00
39197;BME280;42889;51.112;13.772;2022-10-31T21:33:56;99223.47;;;11.00;100.00
39197;BME280;42889;51.112;13.772;2022-10-31T21:36:23;99215.97;;;11.12;100.00
39197;BME280;42889;51.112;13.772;2022-10-31T21:38:52;99222.47;;;11.01;100.00
39197;BME280;42889;51.112;13.772;2022-10-31T21:41:20;99226.53;;;11.05;100.00
39197;BME280;42889;51.112;13.772;2022-10-31T21:43:48;99225.72;;;11.13;100.00
39197;BME280;42889;51.112;13.772;2022-10-31T21:46:18;99228.63;;;11.19;100.00
39197;BME280;42889;51.112;13.772;2022-10-31T21:48:46;99212.94;;;11.15;100.00
39197;BME280;42889;51.112;13.772;2022-10-31T21:51:15;99206.31;;;11.01;100.00
39197;BME280;42889;51.112;13.772;2022-10-31T21:53:42;99200.25;;;10.99;100.00
39197;BME280;42889;51.112;13.772;2022-10-31T21:56:28;99200.56;;;10.96;100.00
39197;BME280;42889;51.112;13.772;2022-10-31T21:58:55;99198.69;;;10.88;100.00
39197;BME280;42889;51.112;13.772;2022-10-31T22:01:23;99195.19;;;10.96;100.00
39197;BME280;42889;51.112;13.772;2022-10-31T22:03:51;99190.47;;;10.98;100.00
39197;BME280;42889;51.112;13.772;2022-10-31T22:06:18;99177.75;;;10.82;100.00
39197;BME280;42889;51.112;13.772;2022-10-31T22:08:44;99176.59;;;10.85;100.00
39197;BME280;42889;51.112;13.772;2022-10-31T22:11:13;99174.38;;;10.80;100.00
39197;BME280;42889;51.112;13.772;2022-10-31T22:13:45;99169.75;;;10.90;100.00
39197;BME280;42889;51.112;13.772;2022-10-31T22:16:24;99159.63;;;10.92;100.00
39197;BME280;42889;51.112;13.772;2022-10-31T22:18:52;99158.00;;;10.99;100.00
39197;BME280;42889;51.112;13.772;2022-10-31T22:21:21;99146.22;;;11.00;100.00
39197;BME280;42889;51.112;13.772;2022-10-31T22:23:54;99164.59;;;11.05;100.00
39197;BME280;42889;51.112;13.772;2022-10-31T22:26:21;99161.56;;;11.08;100.00
39197;BME280;42889;51.112;13.772;2022-10-31T22:28:50;99161.75;;;11.06;100.00
39197;BME280;42889;51.112;13.772;2022-10-31T22:31:22;99158.50;;;11.03;100.00
39197;BME280;42889;51.112;13.772;2022-10-31T22:33:50;99159.13;;;11.23;100.00
39197;BME280;42889;51.112;13.772;2022-10-31T22:36:19;99153.75;;;11.31;100.00
39197;BME280;42889;51.112;13.772;2022-10-31T22:38:47;99145.66;;;11.31;100.00
39197;BME280;42889;51.112;13.772;2022-10-31T22:41:22;99137.44;;;11.32;100.00
39197;BME280;42889;51.112;13.772;2022-10-31T22:43:49;99136.59;;;11.32;100.00
39197;BME280;42889;51.112;13.772;2022-10-31T22:46:24;99129.00;;;11.35;100.00
39197;BME280;42889;51.112;13.772;2022-10-31T22:48:54;99132.09;;;11.49;100.00
39197;BME280;42889;51.112;13.772;2022-10-31T22:51:23;99133.75;;;11.42;100.00
39197;BME280;42889;51.112;13.772;2022-10-31T22:53:50;99126.66;;;11.32;100.00
39197;BME280;42889;51.112;13.772;2022-10-31T22:56:19;99139.47;;;11.39;100.00
39197;BME280;42889;51.112;13.772;2022-10-31T22:58:47;99131.75;;;11.44;100.00
39197;BME280;42889;51.112;13.772;2022-10-31T23:01:19;99116.91;;;11.48;100.00
39197;BME280;42889;51.112;13.772;2022-10-31T23:03:47;99116.97;;;11.72;100.00
39197;BME280;42889;51.112;13.772;2022-10-31T23:06:16;99119.53;;;11.82;100.00
39197;BME280;42889;51.112;13.772;2022-10-31T23:08:43;99110.78;;;11.88;100.00
39197;BME280;42889;51.112;13.772;2022-10-31T23:13:43;99113.97;;;11.92;100.00
39197;BME280;42889;51.112;13.772;2022-10-31T23:16:29;99107.56;;;12.01;100.00
39197;BME280;42889;51.112;13.772;2022-10-31T23:18:56;99113.47;;;11.96;100.00
39197;BME280;42889;51.112;13.772;2022-10-31T23:21:23;99105.38;;;11.96;100.00
39197;BME280;42889;51.112;13.772;2022-10-31T23:24:35;99098.94;;;11.81;100.00
39197;BME280;42889;51.112;13.772;2022-10-31T23:29:36;99091.75;;;11.81;100.00
39197;BME280;42889;51.112;13.772;2022-10-31T23:32:04;99090.53;;;11.76;100.00
39197;BME280;42889;51.112;13.772;2022-10-31T23:34:31;99074.00;;;11.79;100.00
39197;BME280;42889;51.112;13.772;2022-10-31T23:36:58;99073.47;;;11.59;100.00
39197;BME280;42889;51.112;13.772;2022-10-31T23:39:25;99072.50;;;11.60;100.00
39197;BME280;42889;51.112;13.772;2022-10-31T23:41:51;99070.63;;;11.60;100.00
39197;BME280;42889;51.112;13.772;2022-10-31T23:44:18;99066.91;;;11.45;100.00
39197;BME280;42889;51.112;13.772;2022-10-31T23:46:45;99062.69;;;11.51;100.00
39197;BME280;42889;51.112;13.772;2022-10-31T23:49:11;99061.38;;;11.55;100.00
39197;BME280;42889;51.112;13.772;2022-10-31T23:51:38;99062.53;;;11.60;100.00
39197;BME280;42889;51.112;13.772;2022-10-31T23:54:05;99061.69;;;11.44;100.00
39197;BME280;42889;51.112;13.772;2022-10-31T23:56:32;99052.75;;;11.43;100.00